Time;durP1;ratioP1;P1;durP2;ratioP2;P2;SDS_P1;SDS_P2;PMS_P1;PMS_P2;Temp;Humidity;BMP_temperature;BMP_pressure;BME280_temperature;BME280_humidity;BME280_pressure;Samples;Min_cycle;Max_cycle;Signal;HPM_P1;HPM_P2
2022/12/17 13:09:14;;;;;;;6.53;4.00;;;;;;;;;;10459612;28;20108;-76
2022/12/17 13:14:20;;;;;;;10.45;6.00;;;;;;;;;;10433352;28;20032;-74
2022/12/17 13:19:21;;;;;;;8.93;4.65;;;;;;;;;;10442223;28;20119;-72
2022/12/17 13:24:24;;;;;;;7.70;5.07;;;;;;;;;;10436456;28;20020;-73
2022/12/17 13:29:28;;;;;;;7.55;4.63;;;;;;;;;;10436676;28;20471;-75
2022/12/17 13:34:38;;;;;;;10.10;4.90;;;;;;;;;;10436065;28;20146;-73
2022/12/17 13:39:56;;;;;;;9.23;4.60;;;;;;;;;;10437204;28;20032;-76
2022/12/17 13:44:57;;;;;;;10.10;5.03;;;;;;;;;;10440003;28;20029;-75
2022/12/17 13:49:59;;;;;;;11.07;5.90;;;;;;;;;;10447529;28;20032;-78
2022/12/17 13:55:07;;;;;;;13.77;6.38;;;;;;;;;;10445994;28;20028;-74
2022/12/17 14:00:17;;;;;;;17.35;8.05;;;;;;;;;;10459980;28;20024;-74
2022/12/17 14:05:30;;;;;;;15.13;7.05;;;;;;;;;;10452867;28;20048;-72
2022/12/17 14:10:31;;;;;;;11.88;6.18;;;;;;;;;;10437209;28;20474;-73
2022/12/17 14:15:32;;;;;;;16.67;7.43;;;;;;;;;;10462927;28;20024;-74
2022/12/17 14:20:33;;;;;;;13.23;7.50;;;;;;;;;;10461159;28;20029;-75
2022/12/17 14:25:34;;;;;;;13.70;7.65;;;;;;;;;;10424211;28;20528;-75
2022/12/17 14:30:40;;;;;;;15.68;8.20;;;;;;;;;;10462140;28;20033;-74
2022/12/17 14:35:41;;;;;;;15.57;8.02;;;;;;;;;;10446697;28;20127;-79
2022/12/17 14:40:41;;;;;;;15.23;6.75;;;;;;;;;;10448194;28;20063;-79
2022/12/17 14:51:25;;;;;;;12.77;6.85;;;;;;;;;;10469723;28;20137;-78
2022/12/17 14:56:27;;;;;;;12.30;5.85;;;;;;;;;;10442136;28;20504;-77
2022/12/17 15:01:28;;;;;;;13.90;5.57;;;;;;;;;;10424009;28;20654;-77
2022/12/17 15:06:28;;;;;;;9.23;4.53;;;;;;;;;;10451415;28;20035;-77
2022/12/17 15:11:28;;;;;;;8.40;4.45;;;;;;;;;;10467989;28;20371;-73
2022/12/17 15:16:29;;;;;;;8.90;4.28;;;;;;;;;;10460788;28;20025;-76
2022/12/17 15:21:31;;;;;;;13.18;6.55;;;;;;;;;;10470411;28;20124;-76
2022/12/17 15:26:32;;;;;;;18.15;8.13;;;;;;;;;;10467818;28;20503;-78
2022/12/17 15:31:32;;;;;;;26.65;11.55;;;;;;;;;;10437729;28;20047;-79
2022/12/17 15:36:32;;;;;;;15.38;7.50;;;;;;;;;;10454040;28;20017;-77
2022/12/17 15:46:53;;;;;;;19.25;10.43;;;;;;;;;;10428283;28;20072;-77
2022/12/17 15:51:53;;;;;;;28.38;14.75;;;;;;;;;;10425370;28;20025;-79
2022/12/17 15:56:54;;;;;;;27.35;11.20;;;;;;;;;;10423066;28;20058;-78
2022/12/17 16:01:54;;;;;;;16.20;9.02;;;;;;;;;;10424505;28;20032;-78
2022/12/17 16:06:54;;;;;;;15.40;9.73;;;;;;;;;;10421194;28;20017;-75
2022/12/17 16:11:55;;;;;;;17.02;8.07;;;;;;;;;;10438902;28;20131;-78
2022/12/17 16:16:56;;;;;;;19.73;8.27;;;;;;;;;;10404535;28;20422;-77
2022/12/17 16:21:56;;;;;;;17.60;10.00;;;;;;;;;;10422583;28;20461;-75
2022/12/17 16:26:56;;;;;;;18.00;8.95;;;;;;;;;;10416198;28;20029;-77
2022/12/17 16:31:58;;;;;;;28.15;13.93;;;;;;;;;;10434796;28;20498;-76
2022/12/17 16:37:00;;;;;;;23.85;12.35;;;;;;;;;;10425330;28;20033;-74
2022/12/17 16:42:00;;;;;;;22.60;11.95;;;;;;;;;;10423019;28;20060;-74
2022/12/17 16:47:00;;;;;;;20.97;11.73;;;;;;;;;;10423407;28;20021;-78
2022/12/17 16:52:02;;;;;;;23.45;12.70;;;;;;;;;;10423038;28;20085;-77
2022/12/17 16:57:02;;;;;;;27.85;12.23;;;;;;;;;;10424571;28;20053;-77
2022/12/17 17:02:02;;;;;;;25.48;12.85;;;;;;;;;;10424013;28;20115;-77
2022/12/17 17:07:03;;;;;;;23.03;12.27;;;;;;;;;;10424307;28;20075;-78
2022/12/17 17:12:03;;;;;;;35.55;16.27;;;;;;;;;;10421966;28;20029;-78
2022/12/17 17:17:03;;;;;;;39.45;18.42;;;;;;;;;;10424067;28;20485;-77
2022/12/17 17:22:04;;;;;;;38.20;17.67;;;;;;;;;;10422997;28;20091;-80
2022/12/17 17:27:05;;;;;;;41.33;18.60;;;;;;;;;;10422916;28;20063;-79
2022/12/17 17:32:05;;;;;;;56.65;25.52;;;;;;;;;;10422777;28;20028;-75
2022/12/17 17:37:06;;;;;;;39.53;19.92;;;;;;;;;;10430692;28;20388;-74
2022/12/17 17:42:07;;;;;;;59.33;27.42;;;;;;;;;;10424101;28;20060;-74
2022/12/17 17:47:08;;;;;;;57.22;28.25;;;;;;;;;;10445411;28;20467;-75
2022/12/17 17:52:08;;;;;;;60.50;30.88;;;;;;;;;;10435034;28;20021;-75
2022/12/17 17:57:08;;;;;;;104.20;45.73;;;;;;;;;;10422008;28;20048;-74
2022/12/17 18:02:09;;;;;;;68.20;34.50;;;;;;;;;;10411807;28;20717;-80
2022/12/17 18:07:10;;;;;;;92.25;39.47;;;;;;;;;;10418011;28;20270;-74
2022/12/17 18:17:33;;;;;;;78.13;35.30;;;;;;;;;;10425321;28;20032;-79
2022/12/17 18:22:33;;;;;;;80.20;38.58;;;;;;;;;;10429264;28;20036;-75
2022/12/17 18:27:34;;;;;;;57.17;24.95;;;;;;;;;;10429305;28;20119;-79
2022/12/17 18:32:34;;;;;;;47.40;20.63;;;;;;;;;;10432039;28;20141;-74
2022/12/17 18:37:34;;;;;;;59.85;25.92;;;;;;;;;;10428198;28;20722;-78
2022/12/17 18:43:35;;;;;;;50.80;25.35;;;;;;;;;;10430089;28;20435;-76
2022/12/17 18:48:04;;;;;;;54.58;25.90;;;;;;;;;;10453547;28;20037;-76
2022/12/17 18:53:05;;;;;;;56.70;29.37;;;;;;;;;;10465341;28;20036;-75
2022/12/17 18:58:06;;;;;;;70.80;33.63;;;;;;;;;;10447149;28;20307;-77
2022/12/17 19:03:08;;;;;;;68.40;33.28;;;;;;;;;;10446670;28;20021;-75
2022/12/17 19:08:09;;;;;;;64.88;33.45;;;;;;;;;;10450643;28;20051;-80
2022/12/17 19:13:09;;;;;;;70.22;34.63;;;;;;;;;;10427438;28;20446;-74
2022/12/17 19:18:09;;;;;;;72.05;34.45;;;;;;;;;;10427805;28;20491;-76
2022/12/17 19:23:09;;;;;;;59.15;29.13;;;;;;;;;;10426412;28;20032;-75
2022/12/17 19:28:10;;;;;;;62.10;28.75;;;;;;;;;;10412515;28;20090;-75
2022/12/17 19:33:10;;;;;;;56.78;27.35;;;;;;;;;;10426246;28;20057;-76
2022/12/17 19:38:10;;;;;;;48.95;25.50;;;;;;;;;;10425551;28;20050;-78
2022/12/17 19:43:10;;;;;;;57.85;27.02;;;;;;;;;;10401784;28;20060;-72
2022/12/17 19:48:13;;;;;;;45.55;22.50;;;;;;;;;;10400762;28;20347;-74
2022/12/17 19:53:13;;;;;;;42.03;21.42;;;;;;;;;;10401071;28;20066;-82
2022/12/17 19:58:13;;;;;;;35.03;18.95;;;;;;;;;;10427271;28;20242;-75
2022/12/17 20:03:14;;;;;;;33.22;18.58;;;;;;;;;;10429240;28;20068;-74
2022/12/17 20:08:14;;;;;;;38.92;17.30;;;;;;;;;;10421798;28;20080;-77
2022/12/17 20:13:14;;;;;;;39.67;19.20;;;;;;;;;;10405353;28;20033;-79
2022/12/17 20:18:15;;;;;;;39.00;18.90;;;;;;;;;;10401772;28;20412;-74
2022/12/17 20:23:15;;;;;;;34.42;17.55;;;;;;;;;;10380456;28;20531;-69
2022/12/17 20:28:15;;;;;;;31.63;16.55;;;;;;;;;;10399255;28;20029;-73
2022/12/17 20:33:16;;;;;;;30.67;16.80;;;;;;;;;;10401101;28;20017;-79
2022/12/17 20:38:16;;;;;;;32.90;16.63;;;;;;;;;;10400632;28;20048;-79
2022/12/17 20:43:17;;;;;;;33.08;16.45;;;;;;;;;;10398461;28;20057;-75
2022/12/17 20:48:17;;;;;;;33.10;17.10;;;;;;;;;;10387890;28;20531;-79
2022/12/17 20:53:18;;;;;;;30.77;16.40;;;;;;;;;;10396261;28;20064;-77
2022/12/17 20:58:18;;;;;;;29.08;14.68;;;;;;;;;;10406667;28;20104;-78
2022/12/17 21:03:18;;;;;;;25.77;13.98;;;;;;;;;;10403124;28;20107;-81
2022/12/17 21:08:18;;;;;;;28.10;14.93;;;;;;;;;;10403106;28;20256;-75
2022/12/17 21:13:27;;;;;;;27.20;14.50;;;;;;;;;;10412241;28;20029;-78
2022/12/17 21:18:29;;;;;;;32.28;15.75;;;;;;;;;;10407467;28;20028;-80
2022/12/17 21:23:31;;;;;;;26.98;12.80;;;;;;;;;;10409167;28;20037;-77
2022/12/17 21:28:31;;;;;;;28.70;14.65;;;;;;;;;;10404291;28;20033;-79
2022/12/17 21:33:32;;;;;;;29.05;14.05;;;;;;;;;;10398281;28;20033;-78
2022/12/17 21:38:32;;;;;;;24.17;13.45;;;;;;;;;;10393897;28;20549;-76
2022/12/17 21:43:33;;;;;;;34.10;14.40;;;;;;;;;;10432193;28;20056;-77
2022/12/17 21:48:34;;;;;;;25.95;12.98;;;;;;;;;;10422207;28;20523;-75
2022/12/17 21:53:37;;;;;;;25.00;11.95;;;;;;;;;;10418103;28;20601;-79
2022/12/17 21:58:38;;;;;;;22.75;11.30;;;;;;;;;;10431757;28;20048;-76
2022/12/17 22:03:39;;;;;;;23.73;11.95;;;;;;;;;;10444966;28;20032;-74
2022/12/17 22:08:39;;;;;;;22.63;12.10;;;;;;;;;;10461858;28;20084;-74
2022/12/17 22:19:00;;;;;;;21.20;11.00;;;;;;;;;;10448087;28;20029;-79
2022/12/17 22:24:01;;;;;;;19.70;10.10;;;;;;;;;;10431264;28;20692;-79
2022/12/17 22:29:02;;;;;;;16.33;9.00;;;;;;;;;;10430734;28;20059;-76
2022/12/17 22:34:03;;;;;;;14.55;7.82;;;;;;;;;;10456576;28;20471;-74
2022/12/17 22:39:04;;;;;;;17.73;9.75;;;;;;;;;;10446925;28;20036;-79
2022/12/17 22:44:04;;;;;;;13.48;7.45;;;;;;;;;;10452795;28;20437;-75
2022/12/17 22:49:05;;;;;;;17.65;9.27;;;;;;;;;;10430881;28;20036;-76
2022/12/17 22:54:05;;;;;;;10.73;6.55;;;;;;;;;;10436226;28;20962;-74
2022/12/17 22:59:06;;;;;;;8.98;5.35;;;;;;;;;;10430626;28;20465;-79
2022/12/17 23:04:06;;;;;;;10.60;5.50;;;;;;;;;;10442057;28;20500;-75
2022/12/17 23:09:06;;;;;;;9.95;5.03;;;;;;;;;;10436129;28;20035;-79
2022/12/17 23:14:07;;;;;;;7.70;4.27;;;;;;;;;;10444313;28;20021;-75
2022/12/17 23:19:07;;;;;;;7.85;4.65;;;;;;;;;;10447510;28;20279;-78
2022/12/17 23:24:08;;;;;;;7.18;4.43;;;;;;;;;;10430891;28;20033;-79
2022/12/17 23:29:12;;;;;;;7.63;5.10;;;;;;;;;;10433315;28;20111;-76
2022/12/17 23:34:13;;;;;;;8.45;4.15;;;;;;;;;;10446505;28;20267;-79
2022/12/17 23:39:14;;;;;;;7.90;4.50;;;;;;;;;;10458869;28;20099;-78
2022/12/17 23:44:15;;;;;;;8.23;4.93;;;;;;;;;;10414355;28;20055;-79
2022/12/17 23:49:17;;;;;;;7.43;4.47;;;;;;;;;;10403981;28;20033;-76
2022/12/17 23:54:17;;;;;;;7.78;4.18;;;;;;;;;;10405094;28;20083;-77
2022/12/17 23:59:28;;;;;;;6.82;4.15;;;;;;;;;;10382249;28;20029;-78
